SKW2258 KSAN-KRNO
Flight info
| Callsign | SKW2258 |
|---|---|
| Flight time | N/A |
| Altitude | 32000 |
| Route | PADRZ2 EHF SHERF DNGLE1 |
| Aircraft | E75L/M-SDE3GILORVW/S |
Departure
| Time | N/A |
|---|---|
| Airport | San Diego International Airport (KSAN) |
Arrival
| Time | 2026-05-04 01:26 |
|---|---|
| Airport | Reno Tahoe International Airport (KRNO) |
| Time | Latitude | Longitude | Altitude | Speed | Heading |
|---|---|---|---|---|---|
| 2026-05-04 01:16 | 39.70575 | -119.62785 | 8487 ft | 254 kts | 359° |
| 2026-05-04 01:16 | 39.72337 | -119.62816 | 8249 ft | 253 kts | 357° |
| 2026-05-04 01:16 | 39.74091 | -119.62919 | 7986 ft | 251 kts | 353° |
| 2026-05-04 01:17 | 39.75824 | -119.63094 | 7730 ft | 248 kts | 353° |
| 2026-05-04 01:17 | 39.77535 | -119.63308 | 7480 ft | 247 kts | 350° |
| 2026-05-04 01:17 | 39.79231 | -119.63538 | 7237 ft | 243 kts | 350° |
| 2026-05-04 01:17 | 39.80780 | -119.64217 | 6965 ft | 230 kts | 316° |
| 2026-05-04 01:18 | 39.81597 | -119.65832 | 6759 ft | 209 kts | 276° |
| 2026-05-04 01:18 | 39.81648 | -119.67658 | 6728 ft | 192 kts | 265° |
| 2026-05-04 01:18 | 39.81606 | -119.69410 | 6794 ft | 198 kts | 266° |
| 2026-05-04 01:18 | 39.81581 | -119.71234 | 6826 ft | 205 kts | 268° |
| 2026-05-04 01:19 | 39.81567 | -119.73154 | 6787 ft | 212 kts | 266° |
| 2026-05-04 01:19 | 39.81292 | -119.75030 | 6578 ft | 218 kts | 235° |
| 2026-05-04 01:19 | 39.80191 | -119.76208 | 6803 ft | 211 kts | 206° |
| 2026-05-04 01:19 | 39.78696 | -119.76576 | 6814 ft | 223 kts | 186° |
| 2026-05-04 01:20 | 39.77133 | -119.76620 | 6836 ft | 223 kts | 186° |
| 2026-05-04 01:20 | 39.75565 | -119.76615 | 6643 ft | 225 kts | 184° |
| 2026-05-04 01:20 | 39.74033 | -119.76610 | 6657 ft | 219 kts | 187° |
| 2026-05-04 01:20 | 39.72506 | -119.76603 | 6800 ft | 217 kts | 186° |
| 2026-05-04 01:21 | 39.71036 | -119.76603 | 6649 ft | 209 kts | 184° |
| 2026-05-04 01:21 | 39.69588 | -119.76611 | 6311 ft | 206 kts | 184° |
| 2026-05-04 01:21 | 39.68238 | -119.76608 | 6537 ft | 179 kts | 190° |
| 2026-05-04 01:21 | 39.67036 | -119.76598 | 6556 ft | 170 kts | 189° |
| 2026-05-04 01:22 | 39.65886 | -119.76587 | 6665 ft | 163 kts | 189° |
| 2026-05-04 01:22 | 39.64729 | -119.76567 | 6751 ft | 167 kts | 191° |
| 2026-05-04 01:22 | 39.63515 | -119.76666 | 7099 ft | 188 kts | 186° |
| 2026-05-04 01:22 | 39.62191 | -119.76655 | 7021 ft | 185 kts | 184° |
| 2026-05-04 01:23 | 39.60923 | -119.76520 | 6943 ft | 183 kts | 183° |
| 2026-05-04 01:23 | 39.59693 | -119.76439 | 6668 ft | 170 kts | 186° |
| 2026-05-04 01:23 | 39.58554 | -119.76517 | 6334 ft | 160 kts | 189° |
| 2026-05-04 01:23 | 39.57450 | -119.76646 | 5921 ft | 158 kts | 183° |
| 2026-05-04 01:24 | 39.56343 | -119.76610 | 5622 ft | 158 kts | 185° |
| 2026-05-04 01:24 | 39.55247 | -119.76646 | 5347 ft | 161 kts | 183° |
| 2026-05-04 01:24 | 39.54125 | -119.76639 | 5124 ft | 161 kts | 185° |
| 2026-05-04 01:24 | 39.52996 | -119.76662 | 4847 ft | 162 kts | 184° |
| 2026-05-04 01:25 | 39.51890 | -119.76675 | 4568 ft | 160 kts | 181° |
| 2026-05-04 01:25 | 39.50798 | -119.76673 | 4407 ft | 148 kts | 184° |
| 2026-05-04 01:25 | 39.49911 | -119.76685 | 4408 ft | 107 kts | 178° |
| 2026-05-04 01:25 | 39.49350 | -119.76681 | 4408 ft | 53 kts | 179° |
| 2026-05-04 01:26 | 39.49025 | -119.76685 | 4404 ft | 33 kts | 180° |
| 2026-05-04 01:26 | 39.48925 | -119.76770 | 4403 ft | 14 kts | 271° |